createdAt,value
2022-11-16T00:00:06.531Z,37.80
2022-11-16T00:02:34.259Z,33.63
2022-11-16T00:05:01.520Z,36.85
2022-11-16T00:07:28.763Z,37.85
2022-11-16T00:09:55.990Z,40.25
2022-11-16T00:12:23.107Z,43.33
2022-11-16T00:14:50.346Z,45.00
2022-11-16T00:17:17.646Z,39.85
2022-11-16T00:19:45.045Z,47.28
2022-11-16T00:22:12.226Z,46.70
2022-11-16T00:24:39.399Z,41.33
2022-11-16T00:27:06.645Z,45.80
2022-11-16T00:29:33.838Z,43.42
2022-11-16T00:32:01.131Z,40.40
2022-11-16T00:34:28.330Z,39.50
2022-11-16T00:36:55.878Z,39.65
2022-11-16T00:42:17.365Z,38.88
2022-11-16T00:44:44.577Z,40.42
2022-11-16T00:47:11.808Z,40.55
2022-11-16T00:49:38.988Z,46.25
2022-11-16T00:52:06.264Z,50.78
2022-11-16T00:54:33.474Z,40.42
2022-11-16T00:57:00.677Z,44.72
2022-11-16T00:59:27.898Z,48.33
2022-11-16T01:01:55.100Z,46.55
2022-11-16T01:04:22.412Z,54.65
2022-11-16T01:06:49.651Z,51.60
2022-11-16T01:09:16.780Z,53.88
2022-11-16T01:12:02.805Z,47.55
2022-11-16T01:14:30.377Z,56.55
2022-11-16T01:16:58.138Z,48.85
2022-11-16T01:19:25.297Z,49.97
2022-11-16T01:21:52.433Z,49.90
2022-11-16T01:24:19.548Z,50.58
2022-11-16T01:26:46.790Z,53.50
2022-11-16T01:29:14.020Z,51.28
2022-11-16T01:31:41.196Z,47.97
2022-11-16T01:34:08.883Z,48.38
2022-11-16T01:36:36.858Z,50.38
2022-11-16T01:39:05.909Z,45.72
2022-11-16T01:41:33.248Z,45.85
2022-11-16T01:44:06.233Z,52.33
2022-11-16T01:46:33.799Z,52.67
2022-11-16T01:49:10.431Z,50.03
2022-11-16T01:51:38.923Z,52.50
2022-11-16T01:54:10.203Z,53.15
2022-11-16T01:56:39.286Z,45.67
2022-11-16T01:59:06.661Z,47.30
2022-11-16T02:01:34.158Z,45.25
2022-11-16T02:04:01.332Z,48.13
2022-11-16T02:06:48.353Z,47.10
2022-11-16T02:09:57.190Z,50.00
2022-11-16T02:12:53.381Z,51.75
2022-11-16T02:15:42.296Z,53.60
2022-11-16T02:18:48.450Z,50.50
2022-11-16T02:21:37.733Z,55.17
2022-11-16T02:24:47.566Z,47.78
2022-11-16T02:27:56.361Z,57.47
2022-11-16T02:30:24.330Z,61.65
2022-11-16T02:33:18.979Z,66.13
2022-11-16T02:35:52.824Z,63.05
2022-11-16T02:38:28.478Z,72.65
2022-11-16T02:41:15.504Z,68.95
2022-11-16T02:43:47.031Z,72.65
2022-11-16T02:46:23.003Z,70.53
2022-11-16T02:48:56.330Z,60.90
2022-11-16T02:51:25.314Z,68.32
2022-11-16T02:54:13.110Z,65.15
2022-11-16T02:56:46.928Z,63.88
2022-11-16T02:59:17.648Z,63.10
2022-11-16T03:01:59.723Z,64.15
2022-11-16T03:04:50.145Z,66.28
2022-11-16T03:07:23.828Z,64.82
2022-11-16T03:09:53.593Z,62.55
2022-11-16T03:12:27.131Z,66.78
2022-11-16T03:14:59.179Z,67.65
2022-11-16T03:17:34.193Z,62.40
2022-11-16T03:20:17.960Z,60.58
2022-11-16T03:22:52.155Z,62.17
2022-11-16T03:25:21.588Z,63.15
2022-11-16T03:28:13.978Z,57.50
2022-11-16T03:30:51.940Z,56.88
2022-11-16T03:33:37.330Z,58.88
2022-11-16T03:36:12.584Z,69.15
2022-11-16T03:38:41.875Z,50.67
2022-11-16T03:41:11.505Z,33.47
2022-11-16T03:43:40.989Z,29.05
2022-11-16T03:46:08.214Z,27.98
2022-11-16T03:48:37.354Z,32.72
2022-11-16T03:51:05.865Z,31.42
2022-11-16T03:53:33.423Z,29.55
2022-11-16T03:56:01.309Z,29.15
2022-11-16T03:58:28.747Z,34.30
2022-11-16T04:00:56.198Z,30.23
2022-11-16T04:03:23.584Z,26.92
2022-11-16T04:06:09.779Z,27.65
2022-11-16T04:08:55.833Z,27.88
2022-11-16T04:11:42.772Z,29.55
2022-11-16T04:14:40.373Z,26.65
2022-11-16T04:17:38.828Z,25.42
2022-11-16T04:20:35.005Z,25.73
2022-11-16T04:23:32.142Z,25.23
2022-11-16T04:26:00.051Z,25.23
2022-11-16T04:28:32.051Z,25.60
2022-11-16T04:31:21.901Z,28.60
2022-11-16T04:34:12.282Z,28.65
2022-11-16T04:36:58.554Z,28.50
2022-11-16T04:39:25.741Z,27.88
2022-11-16T04:42:11.634Z,36.92
2022-11-16T04:44:57.282Z,54.80
2022-11-16T04:47:24.384Z,52.42
2022-11-16T04:49:51.675Z,52.95
2022-11-16T04:52:19.124Z,51.67
2022-11-16T04:54:46.697Z,51.90
2022-11-16T04:57:13.980Z,51.90
2022-11-16T04:59:41.479Z,47.42
2022-11-16T05:02:08.765Z,50.28
2022-11-16T05:04:39.652Z,51.35
2022-11-16T05:07:11.097Z,51.03
2022-11-16T05:09:43.773Z,46.92
2022-11-16T05:12:16.694Z,46.63
2022-11-16T05:14:45.016Z,48.35
2022-11-16T05:17:13.909Z,45.72
2022-11-16T05:20:01.046Z,47.95
2022-11-16T05:22:28.403Z,46.25
2022-11-16T05:24:55.720Z,51.83
2022-11-16T05:27:24.829Z,51.13
2022-11-16T05:29:53.182Z,49.22
2022-11-16T05:32:21.640Z,47.20
2022-11-16T05:34:49.450Z,45.03
2022-11-16T05:37:18.330Z,46.83
2022-11-16T05:39:45.723Z,42.53
2022-11-16T05:42:12.869Z,45.00
2022-11-16T05:44:40.202Z,44.03
2022-11-16T05:47:07.400Z,45.72
2022-11-16T05:49:34.628Z,36.33
2022-11-16T05:52:01.850Z,45.33
2022-11-16T05:54:31.354Z,33.33
2022-11-16T05:56:58.653Z,31.15
2022-11-16T05:59:26.202Z,30.20
2022-11-16T06:01:53.761Z,28.58
2022-11-16T06:04:24.938Z,28.77
2022-11-16T06:06:52.762Z,31.02
2022-11-16T06:09:20.243Z,30.92
2022-11-16T06:11:47.505Z,32.03
2022-11-16T06:14:14.764Z,32.60
2022-11-16T06:16:41.992Z,32.60
2022-11-16T06:19:09.233Z,37.97
2022-11-16T06:21:36.491Z,33.67
2022-11-16T06:24:09.067Z,37.72
2022-11-16T06:26:37.121Z,40.22
2022-11-16T06:29:05.039Z,37.53
2022-11-16T06:31:32.238Z,36.10
2022-11-16T06:33:59.472Z,34.90
2022-11-16T06:36:26.952Z,39.28
2022-11-16T06:38:54.121Z,40.78
2022-11-16T06:41:21.735Z,38.45
2022-11-16T06:43:48.888Z,38.22
2022-11-16T06:46:16.160Z,33.45
2022-11-16T06:48:43.323Z,39.53
2022-11-16T06:51:10.468Z,37.72
2022-11-16T06:53:37.657Z,35.97
2022-11-16T06:56:06.636Z,32.47
2022-11-16T06:58:35.364Z,36.10
2022-11-16T07:01:11.444Z,35.80
2022-11-16T07:03:38.903Z,36.55
2022-11-16T07:06:15.610Z,37.75
2022-11-16T07:08:43.180Z,35.03
2022-11-16T07:11:11.482Z,34.75
2022-11-16T07:13:39.941Z,31.55
2022-11-16T07:16:11.688Z,29.08
2022-11-16T07:18:41.445Z,29.65
2022-11-16T07:21:15.178Z,29.58
2022-11-16T07:23:42.743Z,30.85
2022-11-16T07:26:13.520Z,31.67
2022-11-16T07:28:46.622Z,41.25
2022-11-16T07:31:16.848Z,37.38
2022-11-16T07:33:43.980Z,37.83
2022-11-16T07:36:15.540Z,31.50
2022-11-16T07:38:42.765Z,34.10
2022-11-16T07:41:15.528Z,30.70
2022-11-16T07:43:42.738Z,26.65
2022-11-16T07:46:47.600Z,27.60
2022-11-16T07:49:18.940Z,25.33
2022-11-16T07:51:46.939Z,30.42
2022-11-16T07:54:15.635Z,29.30
2022-11-16T07:56:43.114Z,26.52
2022-11-16T07:59:10.456Z,24.05
2022-11-16T08:01:37.731Z,24.15
2022-11-16T08:04:04.963Z,23.92
2022-11-16T08:06:32.646Z,26.88
2022-11-16T08:09:00.905Z,27.58
2022-11-16T08:11:28.183Z,28.92
2022-11-16T08:13:57.511Z,28.10
2022-11-16T08:16:25.170Z,32.33
2022-11-16T08:18:52.623Z,35.08
2022-11-16T08:21:21.537Z,37.22
2022-11-16T08:23:50.671Z,32.70
2022-11-16T08:26:22.678Z,33.33
2022-11-16T08:28:51.589Z,32.42
2022-11-16T08:31:24.404Z,35.90
2022-11-16T08:33:52.754Z,35.97
2022-11-16T08:36:22.410Z,33.83
2022-11-16T08:38:51.536Z,33.30
2022-11-16T08:41:19.842Z,38.78
2022-11-16T08:43:47.881Z,44.13
2022-11-16T08:46:15.801Z,39.03
2022-11-16T08:48:43.157Z,44.75
2022-11-16T08:51:19.297Z,41.88
2022-11-16T08:53:50.051Z,41.55
2022-11-16T08:56:19.184Z,45.80
2022-11-16T08:58:47.671Z,42.50
2022-11-16T09:01:21.098Z,40.03
2022-11-16T09:03:48.377Z,48.97
2022-11-16T09:06:16.469Z,49.88
2022-11-16T09:08:46.012Z,48.35
2022-11-16T09:11:17.587Z,51.00
2022-11-16T09:13:47.126Z,50.03
2022-11-16T09:16:17.271Z,51.38
2022-11-16T09:18:48.239Z,49.65
2022-11-16T09:21:21.429Z,48.95
2022-11-16T09:23:49.925Z,45.95
2022-11-16T09:26:22.988Z,50.65
2022-11-16T09:29:03.278Z,46.00
2022-11-16T09:31:34.879Z,48.65
2022-11-16T09:34:04.487Z,44.90
2022-11-16T09:36:32.705Z,47.42
2022-11-16T09:39:28.835Z,49.20
2022-11-16T09:42:06.839Z,46.42
2022-11-16T09:45:16.196Z,48.45
2022-11-16T09:47:57.603Z,52.83
2022-11-16T09:50:44.352Z,51.22
2022-11-16T09:53:23.125Z,50.58
2022-11-16T09:56:06.858Z,51.42
2022-11-16T09:58:56.821Z,47.37
2022-11-16T10:01:40.701Z,47.78
2022-11-16T10:04:37.029Z,55.45
2022-11-16T10:07:26.872Z,51.08
2022-11-16T10:09:56.630Z,49.03
2022-11-16T10:12:43.803Z,46.83
2022-11-16T10:15:38.254Z,46.65
2022-11-16T10:18:53.604Z,47.55
2022-11-16T10:21:50.352Z,42.85
2022-11-16T10:24:34.066Z,43.17
2022-11-16T10:27:39.709Z,44.07
2022-11-16T10:30:19.584Z,38.17
2022-11-16T10:33:11.131Z,42.65
2022-11-16T10:35:48.219Z,44.28
2022-11-16T10:38:20.248Z,41.65
2022-11-16T10:40:53.899Z,39.20
2022-11-16T10:43:33.468Z,35.92
2022-11-16T10:46:04.086Z,38.85
2022-11-16T10:48:37.854Z,36.53
2022-11-16T10:51:06.044Z,39.28
2022-11-16T10:53:36.250Z,40.28
2022-11-16T10:59:07.389Z,38.72
2022-11-16T11:01:52.177Z,37.10
2022-11-16T11:04:35.321Z,34.67
2022-11-16T11:07:30.628Z,37.28
2022-11-16T11:09:57.944Z,36.40
2022-11-16T11:12:45.619Z,44.10
2022-11-16T11:15:27.227Z,43.55
2022-11-16T11:18:43.359Z,39.10
2022-11-16T11:21:37.648Z,34.97
2022-11-16T11:27:04.441Z,32.15
2022-11-16T11:32:25.770Z,30.88
2022-11-16T11:43:33.914Z,31.80
2022-11-16T11:46:13.549Z,32.05
2022-11-16T11:49:21.286Z,30.20
2022-11-16T12:53:57.601Z,39.35
2022-11-16T12:56:55.783Z,39.17
2022-11-16T13:02:35.505Z,34.30
2022-11-16T13:05:42.887Z,85.35
2022-11-16T13:08:40.004Z,49.60
2022-11-16T13:11:27.793Z,31.73
2022-11-16T13:14:15.091Z,31.65
2022-11-16T13:17:08.651Z,32.83
2022-11-16T13:19:52.346Z,37.22
2022-11-16T13:22:34.224Z,44.90
2022-11-16T13:25:57.077Z,33.40
2022-11-16T13:32:14.033Z,28.83
2022-11-16T13:34:43.303Z,29.00
2022-11-16T13:37:38.602Z,25.15
2022-11-16T13:40:07.015Z,31.45
2022-11-16T14:00:31.667Z,35.13
2022-11-16T14:03:43.240Z,40.97
2022-11-16T14:06:28.472Z,56.97
2022-11-16T14:09:00.168Z,31.60
2022-11-16T14:11:40.969Z,24.30
2022-11-16T14:17:04.780Z,19.10
2022-11-16T15:16:22.510Z,24.40
2022-11-16T15:19:01.835Z,22.85
2022-11-16T15:21:32.309Z,22.50
2022-11-16T15:24:28.743Z,24.95
2022-11-16T15:26:49.284Z,20.30
2022-11-16T15:29:22.250Z,21.40
2022-11-16T15:34:58.042Z,20.60
2022-11-16T15:37:38.318Z,22.25
2022-11-16T15:40:08.969Z,23.38
2022-11-16T15:48:26.473Z,24.13
2022-11-16T15:53:57.815Z,22.02
2022-11-16T15:56:37.970Z,22.20
2022-11-16T15:59:17.744Z,24.25
2022-11-16T16:01:47.088Z,22.65
2022-11-16T16:07:44.354Z,25.15
2022-11-16T16:10:29.971Z,28.73
2022-11-16T16:13:20.076Z,24.40
2022-11-16T16:15:51.536Z,23.77
2022-11-16T16:18:43.828Z,30.92
2022-11-16T16:41:24.962Z,29.80
2022-11-16T17:04:18.316Z,31.58
2022-11-16T17:10:01.459Z,27.13
2022-11-16T17:12:37.493Z,27.63
2022-11-16T17:24:12.271Z,28.40
2022-11-16T17:30:37.155Z,33.67
2022-11-16T17:33:27.898Z,33.50
2022-11-16T17:38:59.324Z,35.30
2022-11-16T17:41:28.409Z,34.20
2022-11-16T17:44:23.770Z,39.45
2022-11-16T17:53:36.914Z,35.35
2022-11-16T18:05:23.082Z,29.00
2022-11-16T18:07:51.029Z,28.02
2022-11-16T18:10:19.515Z,30.50
2022-11-16T18:12:46.873Z,25.50
2022-11-16T18:15:29.552Z,28.98
2022-11-16T18:17:58.089Z,28.88
2022-11-16T18:20:27.820Z,28.95
2022-11-16T18:22:57.055Z,26.25
2022-11-16T18:25:50.869Z,27.73
2022-11-16T18:28:19.598Z,27.88
2022-11-16T18:31:07.983Z,29.27
2022-11-16T18:34:20.463Z,29.55
2022-11-16T23:32:59.714Z,25.23
2022-11-16T23:35:33.164Z,26.92
2022-11-16T23:38:09.117Z,28.23
2022-11-16T23:49:45.036Z,29.92
2022-11-16T23:57:49.256Z,28.98
